Elba, AL (36323)

10:39 PM CDT on July 09, 2014 (GMT -0500)
Shiloh Community (KALELBA2) Elev 400 ft | 31.39 °N, 86.01 °W | Change Station

Current weather conditions updated 6 seconds ago

Clear
Clear
71.4 °F
Feels Like 71.4 °F
N
0.0
Wind Variable Wind from East
Gusts 0.0 mph

Tomorrow is forecast to be Much Cooler than today. Thunderstorms.

Today
High -- | Low -- °F
--% Chance of Precip.
Yesterday
High -- | Low -- °F
Precip. -- in
5:47 AM 7:51 PM
Waxing Gibbous, 92% visible
Pressure 30.05 in
Visibility 10.0 miles
Clouds Clear
Dew Point 68 °F
Humidity 89%
Rainfall 0.23 in
Snow Depth Not available.
UV 0 out of 12
Pollen 3.30 out of 12
Air Quality Not available.
Flu Activity Sporadic
METAR K79J 100256Z AUTO 00000KT 10SM CLR 24/21 A3006 RMK AO2 SLP176 T02440211 51007

More Conditions Fewer Conditions

Pressure 30.05 in
Visibility 10.0 miles
Clouds Clear
Dew Point 68 °F
Humidity 89%
Rainfall 0.23 in
Snow Depth Not available.
UV 0 out of 12
Pollen 3.30 out of 12
Air Quality Not available.
Flu Activity Sporadic
METAR K79J 100256Z AUTO 00000KT 10SM CLR 24/21 A3006 RMK AO2 SLP176 T02440211 51007

More Conditions Fewer Conditions

10-Day Weather Forecast

Almanac

Astronomy

Jul. 09, 2014 Rise Set
Actual Time 5:47 AM CDT 7:51 PM CDT
Civil Twilight 5:19 AM CDT 8:19 PM CDT
Nautical Twilight 4:45 AM CDT 8:53 PM CDT
Astronomical Twilight 4:09 AM CDT 9:29 PM CDT
Moon 5:06 PM CDT (7/9) 2:59 AM CDT (7/9)
Length of Visible Light 15h 00m
Length of Day
14h 04m
Tomorrow will be 0m 46s shorter.
Waxing Gibbous, 92% of the Moon is Illuminated
Today
Waxing Gibbous
Jul 12
Full
Jul 18
Last Quarter
Jul 26
New
Aug 3
First Quarter

Today's Extremes

State Highs State Lows

Community

WunderPhotos

Upload Photos

1,732,056 photos uploaded!

Nearby

Snow Depth

Station Depth Elevation
No new snow has been reported.

Earthquake Activity

City Distance Mag. Time & Date
No recent earthquake activity has been reported nearby.
Minimum magnitude displayed is 2.5.

Coastal Water Temperatures

Place Temperature
No Stations Reporting

Nearby Weather Stations

Station Location Temp. Dew Point Humidity Wind Precip. Elev Updated Type
Shiloh Community, Elba, AL 71.4 °F 68 °F 89% East  at  0.0 mph 0.00 in / hr 400 ft 10:39 PM CDT Rapid Fire
Willow Bend, Enterprise, AL 72.2 °F 69 °F 91% NNE  at  0.0 mph 0.00 in / hr 353 ft 10:39 PM CDT Rapid Fire
Opp Cablevision Headend, Opp, AL 72.4 °F 71 °F 94% SE  at  0.0 mph 0.00 in / hr 327 ft 10:39 PM CDT Rapid Fire
Cotton Creek, Enterprise, AL 72.3 °F 71 °F 95% SW  at  0.0 mph 0.00 in / hr 358 ft 10:39 PM CDT Rapid Fire
299/84 Bypass - Hub Brown Rd, Opp, AL 70.5 °F 70 °F 98% South  at  0.0 mph 0.00 in / hr 280 ft 10:31 PM CDT Normal
Rolling Pines, Enterprise, AL 71.6 °F 71 °F 98% South  at  0.0 mph - / hr 256 ft 10:36 PM CDT Normal
3 B Farms Goshen Al, Troy, AL 72.1 °F 71 °F 96% SSW  at  0.0 mph - / hr 400 ft 10:31 PM CDT Normal

Show More Stations Show Fewer Stations